createdAt,value
2019-06-01T00:00:37.864Z,65.22
2019-06-01T00:03:09.727Z,65.60
2019-06-01T00:05:40.735Z,65.82
2019-06-01T00:08:11.811Z,65.58
2019-06-01T00:10:43.023Z,65.81
2019-06-01T00:13:14.089Z,65.76
2019-06-01T00:15:46.155Z,66.04
2019-06-01T00:18:17.333Z,65.83
2019-06-01T00:20:48.603Z,65.93
2019-06-01T00:23:19.831Z,65.66
2019-06-01T00:25:50.940Z,65.92
2019-06-01T00:28:22.001Z,65.75
2019-06-01T00:30:53.302Z,65.78
2019-06-01T00:33:24.785Z,65.76
2019-06-01T00:35:56.039Z,65.55
2019-06-01T00:38:27.181Z,65.74
2019-06-01T00:40:58.201Z,65.69
2019-06-01T00:43:30.408Z,65.88
2019-06-01T00:46:01.410Z,65.84
2019-06-01T00:48:32.564Z,66.59
2019-06-01T00:51:03.577Z,66.16
2019-06-01T00:53:34.642Z,66.25
2019-06-01T00:56:05.818Z,66.66
2019-06-01T00:58:37.135Z,66.36
2019-06-01T01:01:08.465Z,66.41
2019-06-01T01:03:39.726Z,66.72
2019-06-01T01:06:10.805Z,66.43
2019-06-01T01:08:41.834Z,66.10
2019-06-01T01:11:12.854Z,66.39
2019-06-01T01:13:45.657Z,66.50
2019-06-01T01:16:17.074Z,66.46
2019-06-01T01:18:48.143Z,66.37
2019-06-01T01:21:19.361Z,66.36
2019-06-01T01:23:50.464Z,66.39
2019-06-01T01:26:22.658Z,66.01
2019-06-01T01:28:54.866Z,66.36
2019-06-01T01:31:26.163Z,66.10
2019-06-01T01:33:57.636Z,66.29
2019-06-01T01:36:28.787Z,66.86
2019-06-01T01:39:00.738Z,66.85
2019-06-01T01:41:33.348Z,66.79
2019-06-01T01:44:04.717Z,67.06
2019-06-01T01:46:35.899Z,67.15
2019-06-01T01:49:07.454Z,67.17
2019-06-01T01:51:39.096Z,67.11
2019-06-01T01:54:10.322Z,66.87
2019-06-01T01:56:41.343Z,67.26
2019-06-01T01:59:12.394Z,67.05
2019-06-01T02:01:43.409Z,66.72
2019-06-01T02:04:14.455Z,66.89
2019-06-01T02:06:46.648Z,66.87
2019-06-01T02:09:17.759Z,66.60
2019-06-01T02:11:48.781Z,67.00
2019-06-01T02:14:20.003Z,66.92
2019-06-01T02:16:51.920Z,66.80
2019-06-01T02:19:23.282Z,67.01
2019-06-01T02:21:54.495Z,66.78
2019-06-01T02:24:25.532Z,66.61
2019-06-01T02:26:57.203Z,67.19
2019-06-01T02:29:28.343Z,67.08
2019-06-01T02:32:01.849Z,66.81
2019-06-01T02:34:33.406Z,66.78
2019-06-01T02:37:04.653Z,66.84
2019-06-01T02:39:35.796Z,67.11
2019-06-01T02:42:08.902Z,66.95
2019-06-01T02:44:39.946Z,67.07
2019-06-01T02:47:11.632Z,67.00
2019-06-01T02:49:42.738Z,66.86
2019-06-01T02:52:14.226Z,67.31
2019-06-01T02:54:45.340Z,67.14
2019-06-01T02:57:16.336Z,67.09
2019-06-01T02:59:47.524Z,67.23
2019-06-01T03:02:18.777Z,67.39
2019-06-01T03:04:50.738Z,66.94
2019-06-01T03:07:22.054Z,67.01
2019-06-01T03:09:53.727Z,67.16
2019-06-01T03:12:27.004Z,66.94
2019-06-01T03:15:00.540Z,66.92
2019-06-01T03:17:35.259Z,66.97
2019-06-01T03:20:08.750Z,66.80
2019-06-01T03:22:42.115Z,66.88
2019-06-01T03:25:15.045Z,66.89
2019-06-01T03:27:47.889Z,67.17
2019-06-01T03:30:37.211Z,67.33
2019-06-01T03:33:10.585Z,67.22
2019-06-01T03:35:41.278Z,67.19
2019-06-01T03:38:12.689Z,67.22
2019-06-01T03:40:43.858Z,67.50
2019-06-01T03:43:16.825Z,67.54
2019-06-01T03:45:47.884Z,67.18
2019-06-01T03:48:19.048Z,67.30
2019-06-01T03:50:50.690Z,67.33
2019-06-01T03:53:21.787Z,67.27
2019-06-01T03:55:52.814Z,67.56
2019-06-01T03:58:23.864Z,67.79
2019-06-01T04:00:54.944Z,67.88
2019-06-01T04:03:26.049Z,68.13
2019-06-01T04:06:16.356Z,67.72
2019-06-01T04:08:47.389Z,67.58
2019-06-01T04:11:18.382Z,67.61
2019-06-01T04:13:50.565Z,67.63
2019-06-01T04:16:21.573Z,67.96
2019-06-01T04:18:52.617Z,67.92
2019-06-01T04:21:23.678Z,67.87
2019-06-01T04:23:54.940Z,68.06
2019-06-01T04:26:25.990Z,68.46
2019-06-01T04:28:57.401Z,68.18
2019-06-01T04:31:28.391Z,68.01
2019-06-01T04:33:59.697Z,67.74
2019-06-01T04:36:31.269Z,68.02
2019-06-01T04:39:03.327Z,68.23
2019-06-01T04:41:34.526Z,68.01
2019-06-01T04:44:06.238Z,68.31
2019-06-01T04:46:37.370Z,69.13
2019-06-01T04:49:08.610Z,68.85
2019-06-01T04:51:40.138Z,68.94
2019-06-01T04:54:11.640Z,68.66
2019-06-01T04:56:43.785Z,68.77
2019-06-01T04:59:15.330Z,69.04
2019-06-01T05:01:46.525Z,68.85
2019-06-01T05:04:17.626Z,68.87
2019-06-01T05:06:48.683Z,68.74
2019-06-01T05:09:19.697Z,68.86
2019-06-01T05:11:50.961Z,68.67
2019-06-01T05:14:21.999Z,68.48
2019-06-01T05:16:53.132Z,68.63
2019-06-01T05:19:24.152Z,68.70
2019-06-01T05:21:55.288Z,68.62
2019-06-01T05:24:26.324Z,68.43
2019-06-01T05:26:58.535Z,68.22
2019-06-01T05:29:29.636Z,68.12
2019-06-01T05:32:01.642Z,67.97
2019-06-01T05:34:32.648Z,68.10
2019-06-01T05:37:03.827Z,68.05
2019-06-01T05:39:35.100Z,67.88
2019-06-01T05:42:06.304Z,67.80
2019-06-01T05:44:37.317Z,67.90
2019-06-01T05:47:08.403Z,67.66
2019-06-01T05:49:39.413Z,67.61
2019-06-01T05:52:10.486Z,67.65
2019-06-01T05:54:41.804Z,67.68
2019-06-01T05:57:12.870Z,67.63
2019-06-01T05:59:43.907Z,67.88
2019-06-01T06:02:15.230Z,68.21
2019-06-01T06:04:46.238Z,67.78
2019-06-01T06:07:17.349Z,67.33
2019-06-01T06:09:48.365Z,67.64
2019-06-01T06:12:19.557Z,67.85
2019-06-01T06:14:51.247Z,67.48
2019-06-01T06:17:24.320Z,67.39
2019-06-01T06:19:54.977Z,67.29
2019-06-01T06:22:26.140Z,67.39
2019-06-01T06:24:57.172Z,67.55
2019-06-01T06:27:28.212Z,67.32
2019-06-01T06:29:59.288Z,67.66
2019-06-01T06:32:31.670Z,67.33
2019-06-01T06:35:02.770Z,67.09
2019-06-01T06:37:34.060Z,67.35
2019-06-01T06:40:06.712Z,66.13
2019-06-01T06:42:37.814Z,65.38
2019-06-01T06:45:10.413Z,65.32
2019-06-01T06:47:41.493Z,64.83
2019-06-01T06:50:17.702Z,64.37
2019-06-01T06:52:49.301Z,63.93
2019-06-01T06:55:20.314Z,63.25
2019-06-01T06:57:51.406Z,63.62
2019-06-01T07:00:22.717Z,62.53
2019-06-01T07:02:53.761Z,62.81
2019-06-01T07:05:25.534Z,62.41
2019-06-01T07:07:56.665Z,60.75
2019-06-01T07:10:28.832Z,60.53
2019-06-01T07:12:59.872Z,58.64
2019-06-01T07:15:32.032Z,59.42
2019-06-01T07:18:03.116Z,59.16
2019-06-01T07:20:34.316Z,58.58
2019-06-01T07:23:05.390Z,58.39
2019-06-01T07:25:36.507Z,58.97
2019-06-01T07:28:07.798Z,57.92
2019-06-01T07:30:49.860Z,56.04
2019-06-01T07:33:11.711Z,55.32
2019-06-01T07:35:42.818Z,54.50
2019-06-01T07:38:13.904Z,53.95
2019-06-01T07:40:45.454Z,53.89
2019-06-01T07:43:16.698Z,53.35
2019-06-01T07:45:47.847Z,54.22
2019-06-01T07:48:19.051Z,54.86
2019-06-01T07:50:51.609Z,54.42
2019-06-01T07:53:24.074Z,54.69
2019-06-01T07:55:55.645Z,54.35
2019-06-01T07:58:26.842Z,54.72
2019-06-01T08:00:58.078Z,54.83
2019-06-01T08:03:32.921Z,53.14
2019-06-01T08:06:03.109Z,53.63
2019-06-01T08:08:34.193Z,54.08
2019-06-01T08:11:05.450Z,52.69
2019-06-01T08:13:36.594Z,52.45
2019-06-01T08:16:07.836Z,50.92
2019-06-01T08:18:39.169Z,50.13
2019-06-01T08:21:10.276Z,50.87
2019-06-01T08:23:41.434Z,52.78
2019-06-01T08:26:13.622Z,50.85
2019-06-01T08:28:44.694Z,50.19
2019-06-01T08:31:15.820Z,49.65
2019-06-01T08:33:47.083Z,50.30
2019-06-01T08:36:18.196Z,48.34
2019-06-01T08:38:49.300Z,48.94
2019-06-01T08:41:20.400Z,49.36
2019-06-01T08:43:51.456Z,50.20
2019-06-01T08:46:23.688Z,49.79
2019-06-01T08:48:54.872Z,50.21
2019-06-01T08:51:26.660Z,48.72
2019-06-01T08:53:58.230Z,49.51
2019-06-01T08:56:30.276Z,50.89
2019-06-01T08:59:02.416Z,52.15
2019-06-01T09:01:34.956Z,50.72
2019-06-01T09:04:06.318Z,51.32
2019-06-01T09:06:37.426Z,50.94
2019-06-01T09:09:11.686Z,51.94
2019-06-01T09:11:41.908Z,50.71
2019-06-01T09:14:13.278Z,49.74
2019-06-01T09:16:44.532Z,48.38
2019-06-01T09:19:15.859Z,49.94
2019-06-01T09:21:46.957Z,48.83
2019-06-01T09:24:18.122Z,49.22
2019-06-01T09:26:49.189Z,50.31
2019-06-01T09:29:20.416Z,48.74
2019-06-01T09:31:51.690Z,46.51
2019-06-01T09:34:22.733Z,46.87
2019-06-01T09:36:55.653Z,47.38
2019-06-01T09:39:26.918Z,44.67
2019-06-01T09:41:57.960Z,44.03
2019-06-01T09:44:31.962Z,44.46
2019-06-01T09:47:02.926Z,45.84
2019-06-01T09:49:34.181Z,43.82
2019-06-01T09:52:05.654Z,43.89
2019-06-01T09:54:38.020Z,43.13
2019-06-01T09:57:09.463Z,41.78
2019-06-01T09:59:40.625Z,44.22
2019-06-01T10:02:12.070Z,44.31
2019-06-01T10:04:43.507Z,43.42
2019-06-01T10:07:14.601Z,43.72
2019-06-01T10:09:45.649Z,43.97
2019-06-01T10:12:16.809Z,45.54
2019-06-01T10:14:47.870Z,44.66
2019-06-01T10:17:18.985Z,44.28
2019-06-01T10:19:50.008Z,46.39
2019-06-01T10:22:21.393Z,44.01
2019-06-01T10:24:52.509Z,44.62
2019-06-01T10:27:23.569Z,43.46
2019-06-01T10:29:54.654Z,43.53
2019-06-01T10:32:25.726Z,43.83
2019-06-01T10:34:56.725Z,44.18
2019-06-01T10:37:27.806Z,43.41
2019-06-01T10:39:58.814Z,43.93
2019-06-01T10:42:32.289Z,42.98
2019-06-01T10:45:02.743Z,41.21
2019-06-01T10:47:33.988Z,38.98
2019-06-01T10:50:05.878Z,39.91
2019-06-01T10:52:38.447Z,41.90
2019-06-01T10:55:11.362Z,41.32
2019-06-01T10:57:42.816Z,42.09
2019-06-01T11:00:14.431Z,42.07
2019-06-01T11:02:45.476Z,41.13
2019-06-01T11:05:16.726Z,41.55
2019-06-01T11:07:47.781Z,42.61
2019-06-01T11:10:19.098Z,40.85
2019-06-01T11:12:50.224Z,40.61
2019-06-01T11:15:21.628Z,41.33
2019-06-01T11:17:52.713Z,41.46
2019-06-01T11:20:23.879Z,41.92
2019-06-01T11:22:54.951Z,41.23
2019-06-01T11:25:26.060Z,40.67
2019-06-01T11:27:57.135Z,41.20
2019-06-01T11:30:28.320Z,41.43
2019-06-01T11:32:59.451Z,41.12
2019-06-01T11:35:30.532Z,40.36
2019-06-01T11:38:03.310Z,41.47
2019-06-01T11:40:34.711Z,43.19
2019-06-01T11:43:06.458Z,41.61
2019-06-01T11:45:38.812Z,40.66
2019-06-01T11:48:10.170Z,41.71
2019-06-01T11:50:41.488Z,38.85
2019-06-01T11:53:12.536Z,39.88
2019-06-01T11:55:43.731Z,38.77
2019-06-01T11:58:14.841Z,39.36
2019-06-01T12:00:45.947Z,39.81
2019-06-01T12:03:17.411Z,39.67
2019-06-01T12:05:48.553Z,39.74
2019-06-01T12:08:19.682Z,40.83
2019-06-01T12:10:52.208Z,40.60
2019-06-01T12:13:23.323Z,41.87
2019-06-01T12:15:54.337Z,41.31
2019-06-01T12:18:25.848Z,42.44
2019-06-01T12:20:56.935Z,41.62
2019-06-01T12:23:28.085Z,40.28
2019-06-01T12:25:59.149Z,41.49
2019-06-01T12:28:30.610Z,40.00
2019-06-01T12:31:02.872Z,39.78
2019-06-01T12:33:34.057Z,40.04
2019-06-01T12:36:05.378Z,40.89
2019-06-01T12:38:52.752Z,40.04
2019-06-01T12:41:25.279Z,40.62
2019-06-01T12:44:15.794Z,42.08
2019-06-01T12:46:47.184Z,41.46
2019-06-01T12:49:18.445Z,40.98
2019-06-01T12:51:49.573Z,41.03
2019-06-01T12:54:20.636Z,40.18
2019-06-01T12:56:53.113Z,41.10
2019-06-01T12:59:24.136Z,40.81
2019-06-01T13:01:55.262Z,40.37
2019-06-01T13:04:26.261Z,40.80
2019-06-01T13:06:57.372Z,40.82
2019-06-01T13:09:28.401Z,41.68
2019-06-01T13:11:59.499Z,42.44
2019-06-01T13:14:30.524Z,42.01
2019-06-01T13:17:07.538Z,41.44
2019-06-01T13:19:43.387Z,43.07
2019-06-01T13:22:14.401Z,42.48
2019-06-01T13:24:45.865Z,41.94
2019-06-01T13:27:17.098Z,42.51
2019-06-01T13:29:48.440Z,42.77
2019-06-01T13:32:19.577Z,42.90
2019-06-01T13:34:51.395Z,43.80
2019-06-01T13:37:22.503Z,42.57
2019-06-01T13:39:57.687Z,41.96
2019-06-01T13:42:26.318Z,43.34
2019-06-01T13:44:57.422Z,44.64
2019-06-01T13:47:28.515Z,41.94
2019-06-01T13:49:59.952Z,40.86
2019-06-01T13:52:30.967Z,40.54
2019-06-01T13:55:02.249Z,40.44
2019-06-01T13:57:33.308Z,40.30
2019-06-01T14:00:06.495Z,39.27
2019-06-01T14:02:37.803Z,39.74
2019-06-01T14:05:09.589Z,38.86
2019-06-01T14:07:40.618Z,39.25
2019-06-01T14:10:12.224Z,39.24
2019-06-01T14:12:43.272Z,38.29
2019-06-01T14:15:15.157Z,40.32
2019-06-01T14:17:46.271Z,39.45
2019-06-01T14:20:17.520Z,40.31
2019-06-01T14:22:49.838Z,40.82
2019-06-01T14:25:21.203Z,40.40
2019-06-01T14:27:54.301Z,41.18
2019-06-01T14:30:25.797Z,39.99
2019-06-01T14:32:57.032Z,39.54
2019-06-01T14:35:28.226Z,39.98
2019-06-01T14:37:59.251Z,39.58
2019-06-01T14:40:30.489Z,39.37
2019-06-01T14:43:01.551Z,39.85
2019-06-01T14:45:32.763Z,40.08
2019-06-01T14:48:04.152Z,40.12
2019-06-01T14:50:36.273Z,40.93
2019-06-01T14:53:07.463Z,40.29
2019-06-01T14:55:38.565Z,39.56
2019-06-01T14:58:09.706Z,40.25
2019-06-01T15:00:40.841Z,40.42
2019-06-01T15:03:12.002Z,41.30
2019-06-01T15:05:43.430Z,41.06
2019-06-01T15:08:14.472Z,40.40
2019-06-01T15:10:45.593Z,39.32
2019-06-01T15:13:16.670Z,39.67
2019-06-01T15:15:49.343Z,40.25
2019-06-01T15:18:20.644Z,41.22
2019-06-01T15:20:53.799Z,41.00
2019-06-01T15:23:24.939Z,41.72
2019-06-01T15:25:56.461Z,40.74
2019-06-01T15:28:27.590Z,40.11
2019-06-01T15:30:59.272Z,40.83
2019-06-01T15:33:31.520Z,40.89
2019-06-01T15:36:02.681Z,40.96
2019-06-01T15:38:33.942Z,40.50
2019-06-01T15:41:05.063Z,40.72
2019-06-01T15:43:36.752Z,41.62
2019-06-01T15:46:07.821Z,40.51
2019-06-01T15:48:38.966Z,40.58
2019-06-01T15:51:11.075Z,40.74
2019-06-01T15:53:42.182Z,40.38
2019-06-01T15:56:13.323Z,41.52
2019-06-01T15:58:52.818Z,41.92
2019-06-01T16:01:17.471Z,41.75
2019-06-01T16:03:48.599Z,42.06
2019-06-01T16:06:19.585Z,41.01
2019-06-01T16:08:50.646Z,41.06
2019-06-01T16:11:21.593Z,40.12
2019-06-01T16:13:53.646Z,41.22
2019-06-01T16:16:24.720Z,41.06
2019-06-01T16:18:59.834Z,40.50
2019-06-01T16:21:28.505Z,40.07
2019-06-01T16:24:00.315Z,40.66
2019-06-01T16:26:31.482Z,41.05
2019-06-01T16:29:03.503Z,41.31
2019-06-01T16:31:36.875Z,40.84
2019-06-01T16:34:08.061Z,40.81
2019-06-01T16:36:40.620Z,41.23
2019-06-01T16:39:11.738Z,41.26
2019-06-01T16:41:43.270Z,41.33
2019-06-01T16:44:14.784Z,41.20
2019-06-01T16:46:46.054Z,40.97
2019-06-01T16:49:17.499Z,41.33
2019-06-01T16:51:59.072Z,41.23
2019-06-01T16:54:31.273Z,41.69
2019-06-01T16:57:05.323Z,41.74
2019-06-01T16:59:38.524Z,42.66
2019-06-01T17:02:09.934Z,41.90
2019-06-01T17:04:44.115Z,42.15
2019-06-01T17:07:15.087Z,42.25
2019-06-01T17:09:46.184Z,42.05
2019-06-01T17:12:17.248Z,41.69
2019-06-01T17:14:49.430Z,41.87
2019-06-01T17:17:20.508Z,42.08
2019-06-01T17:19:51.550Z,42.15
2019-06-01T17:22:22.555Z,41.96
2019-06-01T17:24:53.746Z,42.04
2019-06-01T17:27:24.880Z,41.81
2019-06-01T17:29:55.977Z,41.56
2019-06-01T17:32:26.996Z,42.02
2019-06-01T17:34:58.581Z,42.94
2019-06-01T17:37:29.738Z,44.33
2019-06-01T17:40:02.109Z,44.25
2019-06-01T17:42:33.535Z,43.68
2019-06-01T17:45:06.095Z,43.86
2019-06-01T17:47:40.780Z,43.85
2019-06-01T17:50:11.767Z,44.04
2019-06-01T17:52:43.887Z,44.10
2019-06-01T17:55:36.210Z,44.08
2019-06-01T17:58:09.774Z,44.02
2019-06-01T18:00:40.939Z,44.59
2019-06-01T18:03:13.069Z,44.75
2019-06-01T18:05:44.578Z,45.15
2019-06-01T18:08:15.749Z,45.09
2019-06-01T18:10:54.158Z,44.88
2019-06-01T18:13:20.196Z,44.82
2019-06-01T18:16:10.509Z,44.78
2019-06-01T18:18:41.876Z,44.96
2019-06-01T18:21:13.043Z,45.19
2019-06-01T18:23:44.235Z,45.14
2019-06-01T18:26:15.433Z,44.88
2019-06-01T18:28:46.542Z,45.00
2019-06-01T18:31:17.622Z,44.98
2019-06-01T18:33:48.755Z,44.84
2019-06-01T18:36:20.017Z,44.89
2019-06-01T18:38:51.180Z,44.94
2019-06-01T18:41:22.514Z,45.14
2019-06-01T18:43:53.556Z,45.20
2019-06-01T18:46:24.649Z,45.34
2019-06-01T18:48:55.809Z,45.66
2019-06-01T18:51:26.893Z,45.80
2019-06-01T18:53:57.892Z,46.14
2019-06-01T18:56:28.915Z,46.21
2019-06-01T18:59:00.002Z,46.79
2019-06-01T19:01:31.404Z,47.33
2019-06-01T19:04:02.517Z,47.76
2019-06-01T19:06:33.646Z,48.07
2019-06-01T19:09:07.232Z,48.06
2019-06-01T19:11:38.279Z,48.73
2019-06-01T19:14:09.833Z,49.04
2019-06-01T19:16:41.181Z,49.32
2019-06-01T19:19:12.669Z,49.72
2019-06-01T19:21:43.721Z,50.21
2019-06-01T19:24:14.788Z,50.18
2019-06-01T19:26:45.809Z,51.08
2019-06-01T19:29:16.996Z,51.40
2019-06-01T19:31:48.063Z,52.24
2019-06-01T19:34:19.128Z,52.19
2019-06-01T19:36:53.738Z,52.33
2019-06-01T19:39:25.216Z,52.39
2019-06-01T19:41:56.329Z,53.27
2019-06-01T19:44:27.538Z,53.66
2019-06-01T19:46:58.573Z,53.84
2019-06-01T19:49:29.631Z,54.36
2019-06-01T19:52:00.679Z,54.08
2019-06-01T19:54:31.696Z,54.25
2019-06-01T19:57:02.762Z,54.61
2019-06-01T19:59:33.784Z,54.83
2019-06-01T20:02:22.653Z,54.99
2019-06-01T20:04:37.850Z,55.00
2019-06-01T20:07:08.873Z,55.28
2019-06-01T20:09:39.916Z,55.33
2019-06-01T20:12:14.754Z,55.50
2019-06-01T20:14:43.629Z,55.63
2019-06-01T20:17:15.661Z,55.60
2019-06-01T20:19:47.105Z,55.81
2019-06-01T20:22:19.038Z,56.22
2019-06-01T20:24:50.240Z,56.05
2019-06-01T20:27:21.872Z,56.21
2019-06-01T20:29:53.691Z,56.81
2019-06-01T20:32:24.742Z,57.27
2019-06-01T20:34:55.859Z,57.27
2019-06-01T20:37:29.007Z,57.19
2019-06-01T20:40:00.035Z,57.44
2019-06-01T20:42:32.866Z,57.64
2019-06-01T20:45:05.064Z,57.60
2019-06-01T20:47:36.654Z,57.86
2019-06-01T20:50:10.702Z,57.73
2019-06-01T20:52:41.735Z,57.92
2019-06-01T20:55:13.494Z,58.20
2019-06-01T20:57:44.498Z,58.46
2019-06-01T21:00:17.804Z,58.42
2019-06-01T21:02:49.064Z,58.53
2019-06-01T21:05:20.236Z,58.76
2019-06-01T21:07:51.299Z,58.96
2019-06-01T21:10:24.110Z,58.74
2019-06-01T21:12:55.300Z,58.73
2019-06-01T21:15:27.685Z,58.61
2019-06-01T21:17:58.723Z,58.48
2019-06-01T21:20:30.170Z,58.56
2019-06-01T21:23:01.201Z,58.86
2019-06-01T21:25:32.295Z,59.06
2019-06-01T21:28:03.357Z,59.40
2019-06-01T21:30:34.370Z,59.29
2019-06-01T21:33:05.384Z,59.40
2019-06-01T21:35:36.456Z,59.41
2019-06-01T21:38:08.027Z,59.51
2019-06-01T21:40:39.405Z,59.69
2019-06-01T21:43:23.510Z,59.74
2019-06-01T21:45:43.216Z,59.56
2019-06-01T21:48:15.545Z,59.67
2019-06-01T21:50:46.635Z,59.77
2019-06-01T21:53:17.936Z,59.86
2019-06-01T21:55:49.066Z,59.97
2019-06-01T21:58:21.052Z,60.21
2019-06-01T22:00:53.868Z,60.36
2019-06-01T22:03:27.250Z,60.62
2019-06-01T22:05:58.700Z,60.69
2019-06-01T22:08:29.697Z,60.84
2019-06-01T22:11:00.702Z,60.67
2019-06-01T22:13:31.696Z,60.57
2019-06-01T22:16:02.711Z,60.65
2019-06-01T22:18:33.786Z,60.64
2019-06-01T22:21:04.870Z,60.66
2019-06-01T22:23:35.845Z,60.50
2019-06-01T22:26:08.171Z,60.60
2019-06-01T22:28:39.196Z,60.90
2019-06-01T22:31:10.217Z,60.98
2019-06-01T22:33:41.289Z,61.09
2019-06-01T22:36:12.356Z,61.02
2019-06-01T22:38:43.425Z,61.35
2019-06-01T22:41:14.618Z,61.35
2019-06-01T22:43:47.063Z,61.46
2019-06-01T22:46:18.311Z,61.66
2019-06-01T22:48:49.390Z,61.57
2019-06-01T22:51:20.834Z,61.76
2019-06-01T22:53:52.000Z,61.66
2019-06-01T22:56:23.238Z,61.84
2019-06-01T22:58:54.287Z,61.89
2019-06-01T23:01:25.293Z,61.75
2019-06-01T23:03:56.357Z,62.14
2019-06-01T23:06:29.250Z,61.97
2019-06-01T23:09:00.398Z,62.25
2019-06-01T23:11:31.810Z,62.28
2019-06-01T23:14:02.840Z,62.45
2019-06-01T23:16:33.871Z,62.15
2019-06-01T23:19:05.052Z,62.25
2019-06-01T23:21:36.053Z,62.20
2019-06-01T23:24:08.444Z,62.33
2019-06-01T23:26:39.711Z,62.50
2019-06-01T23:29:10.702Z,62.38
2019-06-01T23:31:41.799Z,62.52
2019-06-01T23:34:13.196Z,62.38
2019-06-01T23:36:44.282Z,62.21
2019-06-01T23:39:15.341Z,62.21
2019-06-01T23:41:46.389Z,62.23
2019-06-01T23:44:17.501Z,62.53
2019-06-01T23:46:48.518Z,62.48
2019-06-01T23:49:19.662Z,62.46
2019-06-01T23:51:50.663Z,62.47
2019-06-01T23:54:21.657Z,62.73
2019-06-01T23:56:53.004Z,62.61
2019-06-01T23:59:24.120Z,62.73
